createdAt,value
2023-11-24T00:00:19.284Z,97422.80
2023-11-24T00:05:48.918Z,97413.40
2023-11-24T00:10:59.986Z,97405.80
2023-11-24T00:16:11.460Z,97400.80
2023-11-24T00:21:21.625Z,97401.20
2023-11-24T00:26:31.659Z,97403.00
2023-11-24T00:31:41.211Z,97409.20
2023-11-24T00:36:50.991Z,97414.60
2023-11-24T00:42:01.894Z,97411.00
2023-11-24T00:47:12.259Z,97419.20
2023-11-24T00:52:22.105Z,97424.00
2023-11-24T00:57:31.878Z,97427.60
2023-11-24T01:02:41.646Z,97400.60
2023-11-24T01:07:51.639Z,97415.40
2023-11-24T01:13:01.238Z,97411.20
2023-11-24T01:18:11.837Z,97410.40
2023-11-24T01:23:22.294Z,97420.20
2023-11-24T01:28:31.868Z,97417.20
2023-11-24T01:33:41.593Z,97425.00
2023-11-24T01:38:52.095Z,97429.80
2023-11-24T01:44:06.022Z,97411.20
2023-11-24T01:49:16.031Z,97411.60
2023-11-24T01:54:27.597Z,97411.80
2023-11-24T01:59:39.078Z,97411.40
2023-11-24T02:04:48.726Z,97407.40
2023-11-24T02:09:58.502Z,97415.00
2023-11-24T02:15:11.380Z,97440.20
2023-11-24T02:20:21.493Z,97458.40
2023-11-24T02:25:31.086Z,97476.00
2023-11-24T02:30:41.299Z,97453.60
2023-11-24T02:35:51.157Z,97430.60
2023-11-24T02:41:01.676Z,97430.60
2023-11-24T02:46:15.201Z,97417.40
2023-11-24T02:51:25.877Z,97413.40
2023-11-24T02:56:35.603Z,97407.20
2023-11-24T03:01:45.277Z,97403.20
2023-11-24T03:06:55.223Z,97406.20
2023-11-24T03:12:05.396Z,97401.00
2023-11-24T03:17:14.881Z,97404.00
2023-11-24T03:22:24.592Z,97409.80
2023-11-24T03:27:34.512Z,97410.00
2023-11-24T03:32:44.103Z,97413.20
2023-11-24T03:37:53.826Z,97411.80
2023-11-24T03:43:04.208Z,97422.20
2023-11-24T03:48:21.046Z,97426.80
2023-11-24T03:53:30.974Z,97420.00
2023-11-24T03:58:40.479Z,97410.00
2023-11-24T04:03:53.048Z,97402.00
2023-11-24T04:09:02.794Z,97407.00
2023-11-24T04:14:12.376Z,97405.40
2023-11-24T04:19:22.056Z,97412.00
2023-11-24T04:24:31.962Z,97404.20
2023-11-24T04:29:42.119Z,97396.80
2023-11-24T04:34:51.806Z,97413.80
2023-11-24T04:40:01.712Z,97416.80
2023-11-24T04:45:14.020Z,97416.40
2023-11-24T04:50:24.011Z,97425.80
2023-11-24T04:55:34.574Z,97408.40
2023-11-24T05:00:44.218Z,97410.80
2023-11-24T05:05:53.807Z,97407.60
2023-11-24T05:11:03.909Z,97416.20
2023-11-24T05:16:14.093Z,97406.80
2023-11-24T05:21:23.739Z,97414.60
2023-11-24T05:26:34.048Z,97421.80
2023-11-24T05:31:43.701Z,97431.00
2023-11-24T05:36:53.310Z,97425.80
2023-11-24T05:42:05.579Z,97426.40
2023-11-24T05:47:15.336Z,97419.20
2023-11-24T05:52:25.170Z,97425.80
2023-11-24T05:57:35.398Z,97432.00
2023-11-24T06:02:45.067Z,97433.80
2023-11-24T06:07:56.446Z,97440.80
2023-11-24T06:13:07.966Z,97437.40
2023-11-24T06:18:18.021Z,97440.80
2023-11-24T06:23:27.550Z,97442.80
2023-11-24T06:28:37.236Z,97436.00
2023-11-24T06:33:47.365Z,97434.20
2023-11-24T06:38:57.234Z,97432.80
2023-11-24T06:44:07.849Z,97438.20
2023-11-24T06:49:18.893Z,97428.20
2023-11-24T06:54:29.121Z,97431.80
2023-11-24T06:59:39.536Z,97425.40
2023-11-24T07:04:51.168Z,97438.60
2023-11-24T07:10:02.875Z,97433.80
2023-11-24T07:15:14.814Z,97434.00
2023-11-24T07:20:25.008Z,97428.00
2023-11-24T07:25:34.773Z,97428.20
2023-11-24T07:30:44.797Z,97436.20
2023-11-24T07:35:54.406Z,97431.80
2023-11-24T07:41:06.162Z,97427.40
2023-11-24T07:46:15.971Z,97433.60
2023-11-24T07:51:26.139Z,97432.80
2023-11-24T07:56:38.074Z,97421.60
2023-11-24T08:01:48.061Z,97424.20
2023-11-24T08:06:57.853Z,97446.00
2023-11-24T08:12:12.360Z,97452.40
2023-11-24T08:17:23.849Z,97463.80
2023-11-24T08:22:33.758Z,97481.60
2023-11-24T08:27:46.175Z,97478.40
2023-11-24T08:32:56.087Z,97484.80
2023-11-24T08:38:06.376Z,97499.80
2023-11-24T08:43:16.363Z,97511.40
2023-11-24T08:48:26.417Z,97503.80
2023-11-24T08:53:36.390Z,97488.20
2023-11-24T08:58:46.120Z,97479.40
2023-11-24T09:03:56.038Z,97482.20
2023-11-24T09:09:08.663Z,97474.80
2023-11-24T09:14:18.767Z,97478.00
2023-11-24T09:19:28.364Z,97464.60
2023-11-24T09:24:38.140Z,97469.00
2023-11-24T09:29:49.271Z,97460.00
2023-11-24T09:34:59.479Z,97456.00
2023-11-24T09:40:18.073Z,97452.80
2023-11-24T09:45:28.669Z,97463.80
2023-11-24T09:50:41.117Z,97466.00
2023-11-24T09:55:50.826Z,97464.00
2023-11-24T10:01:09.120Z,97477.60
2023-11-24T10:06:19.296Z,97468.00
2023-11-24T10:11:34.879Z,97486.80
2023-11-24T10:16:45.269Z,97484.00
2023-11-24T10:21:57.432Z,97477.40
2023-11-24T10:27:23.788Z,97478.00
2023-11-24T10:32:33.579Z,97478.00
2023-11-24T10:37:43.893Z,97478.20
2023-11-24T10:42:58.679Z,97472.80
2023-11-24T10:48:22.240Z,97471.80
2023-11-24T10:53:38.568Z,97469.00
2023-11-24T10:58:53.624Z,97471.40
2023-11-24T11:04:04.457Z,97474.40
2023-11-24T11:09:31.118Z,97479.20
2023-11-24T11:14:41.504Z,97477.40
2023-11-24T11:20:06.933Z,97480.20
2023-11-24T11:25:44.896Z,97485.20
2023-11-24T11:30:59.012Z,97502.40
2023-11-24T11:36:13.216Z,97493.80
2023-11-24T11:41:46.168Z,97498.80
2023-11-24T11:47:26.283Z,97490.00
2023-11-24T11:52:36.976Z,97505.00
2023-11-24T11:57:53.482Z,97508.00
2023-11-24T12:03:06.630Z,97517.00
2023-11-24T12:08:19.005Z,97508.00
2023-11-24T12:13:30.378Z,97512.40
2023-11-24T12:18:40.305Z,97508.40
2023-11-24T12:23:50.824Z,97507.80
2023-11-24T12:29:04.291Z,97505.60
2023-11-24T12:34:24.020Z,97510.00
2023-11-24T12:39:35.751Z,97510.20
2023-11-24T12:44:45.584Z,97530.40
2023-11-24T12:50:08.655Z,97523.80
2023-11-24T12:55:19.923Z,97528.80
2023-11-24T13:00:30.337Z,97531.60
2023-11-24T13:05:40.675Z,97533.00
2023-11-24T13:10:54.688Z,97528.60
2023-11-24T13:16:06.772Z,97520.60
2023-11-24T13:21:16.970Z,97520.20
2023-11-24T13:26:27.418Z,97519.60
2023-11-24T13:31:42.834Z,97507.80
2023-11-24T13:36:52.744Z,97510.20
2023-11-24T13:42:02.470Z,97511.80
2023-11-24T13:47:14.630Z,97500.40
2023-11-24T13:52:24.656Z,97510.20
2023-11-24T13:57:34.906Z,97507.20
2023-11-24T14:02:46.812Z,97513.80
2023-11-24T14:07:56.708Z,97515.40
2023-11-24T14:13:07.388Z,97519.00
2023-11-24T14:18:17.148Z,97524.00
2023-11-24T14:23:27.128Z,97528.20
2023-11-24T14:28:37.718Z,97527.20
2023-11-24T14:33:47.383Z,97532.20
2023-11-24T14:38:58.193Z,97536.60
2023-11-24T14:44:09.688Z,97538.60
2023-11-24T14:49:19.849Z,97545.80
2023-11-24T14:54:31.442Z,97538.20
2023-11-24T14:59:41.320Z,97534.40
2023-11-24T15:04:51.180Z,97533.20
2023-11-24T15:10:01.246Z,97531.20
2023-11-24T15:15:13.592Z,97527.40
2023-11-24T15:20:27.500Z,97529.80
2023-11-24T15:25:49.602Z,97540.20
2023-11-24T15:31:01.288Z,97535.40
2023-11-24T15:36:14.640Z,97535.60
2023-11-24T15:41:37.404Z,97543.20
2023-11-24T15:46:47.480Z,97538.80
2023-11-24T15:51:59.709Z,97541.40
2023-11-24T15:57:11.522Z,97542.40
2023-11-24T16:02:26.802Z,97538.00
2023-11-24T16:07:36.701Z,97543.20
2023-11-24T16:12:50.077Z,97545.20
2023-11-24T16:18:00.469Z,97537.40
2023-11-24T16:23:10.391Z,97546.00
2023-11-24T16:28:20.141Z,97541.60
2023-11-24T16:33:30.704Z,97538.60
2023-11-24T16:38:41.148Z,97532.40
2023-11-24T16:43:50.913Z,97540.40
2023-11-24T16:49:00.565Z,97534.60
2023-11-24T16:54:11.196Z,97532.00
2023-11-24T16:59:22.128Z,97527.40
2023-11-24T17:04:32.172Z,97524.40
2023-11-24T17:09:43.036Z,97514.80
2023-11-24T17:14:53.512Z,97506.20
2023-11-24T17:20:03.517Z,97507.20
2023-11-24T17:25:21.535Z,97504.20
2023-11-24T17:30:38.204Z,97516.60
2023-11-24T17:35:49.170Z,97520.20
2023-11-24T17:40:59.605Z,97517.20
2023-11-24T17:46:09.631Z,97523.40
2023-11-24T17:51:19.708Z,97516.40
2023-11-24T17:56:29.568Z,97521.00
2023-11-24T18:01:39.941Z,97519.00
2023-11-24T18:06:49.926Z,97525.00
2023-11-24T18:11:59.915Z,97518.20
2023-11-24T18:17:10.502Z,97515.60
2023-11-24T18:22:20.692Z,97515.60
2023-11-24T18:27:30.401Z,97513.60
2023-11-24T18:32:40.642Z,97517.00
2023-11-24T18:37:50.553Z,97509.00
2023-11-24T18:43:01.292Z,97509.20
2023-11-24T18:48:12.071Z,97511.00
2023-11-24T18:53:21.724Z,97508.20
2023-11-24T18:58:31.557Z,97507.00
2023-11-24T19:03:41.254Z,97508.00
2023-11-24T19:08:52.449Z,97508.40
2023-11-24T19:14:03.093Z,97510.60
2023-11-24T19:19:13.430Z,97506.60
2023-11-24T19:24:23.110Z,97508.40
2023-11-24T19:29:32.925Z,97510.20
2023-11-24T19:34:42.835Z,97515.20
2023-11-24T19:39:52.425Z,97511.80
2023-11-24T19:45:02.548Z,97514.00
2023-11-24T19:50:13.578Z,97505.80
2023-11-24T19:55:23.609Z,97493.20
2023-11-24T20:00:33.296Z,97500.00
2023-11-24T20:05:42.969Z,97501.20
2023-11-24T20:10:54.308Z,97503.00
2023-11-24T20:16:04.078Z,97495.40
2023-11-24T20:21:14.355Z,97509.80
2023-11-24T20:26:24.606Z,97510.60
2023-11-24T20:31:34.944Z,97509.20
2023-11-24T20:36:45.297Z,97503.60
2023-11-24T20:41:56.263Z,97504.00
2023-11-24T20:47:06.127Z,97506.20
2023-11-24T20:52:17.071Z,97506.00
2023-11-24T20:57:26.940Z,97518.40
2023-11-24T21:02:36.695Z,97523.00
2023-11-24T21:07:46.412Z,97518.40
2023-11-24T21:12:56.104Z,97520.00
2023-11-24T21:18:06.945Z,97526.00
2023-11-24T21:23:16.914Z,97524.60
2023-11-24T21:28:27.233Z,97531.80
2023-11-24T21:33:38.419Z,97529.80
2023-11-24T21:38:48.049Z,97536.60
2023-11-24T21:43:57.642Z,97535.40
2023-11-24T21:49:08.152Z,97535.20
2023-11-24T21:54:17.758Z,97533.00
2023-11-24T21:59:28.043Z,97533.00
2023-11-24T22:04:37.672Z,97536.00
2023-11-24T22:09:47.238Z,97535.20
2023-11-24T22:14:58.433Z,97539.80
2023-11-24T22:20:12.230Z,97539.00
2023-11-24T22:25:22.674Z,97546.20
2023-11-24T22:30:32.820Z,97546.80
2023-11-24T22:35:43.353Z,97551.80
2023-11-24T22:40:53.028Z,97561.00
2023-11-24T22:46:03.855Z,97562.80
2023-11-24T22:51:20.743Z,97563.40
2023-11-24T22:56:31.081Z,97564.40
2023-11-24T23:01:41.278Z,97571.40
2023-11-24T23:06:51.061Z,97569.00
2023-11-24T23:12:00.755Z,97569.40
2023-11-24T23:17:12.070Z,97579.00
2023-11-24T23:22:31.201Z,97574.00
2023-11-24T23:27:46.174Z,97577.60
2023-11-24T23:33:03.489Z,97584.20
2023-11-24T23:38:21.747Z,97586.00
2023-11-24T23:43:31.633Z,97591.20
2023-11-24T23:48:41.500Z,97595.20
2023-11-24T23:53:51.037Z,97604.40
2023-11-24T23:59:01.287Z,97600.20
